sensor_id;sensor_type;location;lat;lon;timestamp;P1;durP1;ratioP1;P2;durP2;ratioP2
11313;SDS011;5712;48.858;9.206;2023-08-21T00:00:13;5.93;;;5.43;;
11313;SDS011;5712;48.858;9.206;2023-08-21T00:02:40;5.63;;;5.13;;
11313;SDS011;5712;48.858;9.206;2023-08-21T00:05:07;6.10;;;5.50;;
11313;SDS011;5712;48.858;9.206;2023-08-21T00:07:34;6.00;;;5.40;;
11313;SDS011;5712;48.858;9.206;2023-08-21T00:10:00;6.80;;;5.50;;
11313;SDS011;5712;48.858;9.206;2023-08-21T00:12:28;6.38;;;5.78;;
11313;SDS011;5712;48.858;9.206;2023-08-21T00:14:55;7.07;;;5.83;;
11313;SDS011;5712;48.858;9.206;2023-08-21T00:17:21;6.03;;;5.43;;
11313;SDS011;5712;48.858;9.206;2023-08-21T00:19:48;6.40;;;5.80;;
11313;SDS011;5712;48.858;9.206;2023-08-21T00:22:15;5.80;;;5.20;;
11313;SDS011;5712;48.858;9.206;2023-08-21T00:24:42;7.23;;;5.20;;
11313;SDS011;5712;48.858;9.206;2023-08-21T00:27:08;6.07;;;5.47;;
11313;SDS011;5712;48.858;9.206;2023-08-21T00:29:36;6.20;;;5.60;;
11313;SDS011;5712;48.858;9.206;2023-08-21T00:32:03;6.03;;;5.35;;
11313;SDS011;5712;48.858;9.206;2023-08-21T00:34:31;6.57;;;5.87;;
11313;SDS011;5712;48.858;9.206;2023-08-21T00:36:58;5.90;;;5.28;;
11313;SDS011;5712;48.858;9.206;2023-08-21T00:39:24;6.05;;;5.45;;
11313;SDS011;5712;48.858;9.206;2023-08-21T00:41:51;6.50;;;5.57;;
11313;SDS011;5712;48.858;9.206;2023-08-21T00:44:17;6.23;;;5.63;;
11313;SDS011;5712;48.858;9.206;2023-08-21T00:46:45;5.78;;;5.18;;
11313;SDS011;5712;48.858;9.206;2023-08-21T00:49:12;6.00;;;5.40;;
11313;SDS011;5712;48.858;9.206;2023-08-21T00:51:38;7.23;;;5.63;;
11313;SDS011;5712;48.858;9.206;2023-08-21T00:54:05;6.18;;;5.50;;
11313;SDS011;5712;48.858;9.206;2023-08-21T00:56:32;6.27;;;5.67;;
11313;SDS011;5712;48.858;9.206;2023-08-21T00:58:59;7.57;;;5.50;;
11313;SDS011;5712;48.858;9.206;2023-08-21T01:01:26;6.03;;;5.43;;
11313;SDS011;5712;48.858;9.206;2023-08-21T01:03:55;6.17;;;5.57;;
11313;SDS011;5712;48.858;9.206;2023-08-21T01:06:22;6.23;;;5.63;;
11313;SDS011;5712;48.858;9.206;2023-08-21T01:08:50;6.28;;;5.30;;
11313;SDS011;5712;48.858;9.206;2023-08-21T01:11:24;5.97;;;5.10;;
11313;SDS011;5712;48.858;9.206;2023-08-21T01:13:54;5.97;;;5.23;;
11313;SDS011;5712;48.858;9.206;2023-08-21T01:16:29;6.83;;;5.63;;
11313;SDS011;5712;48.858;9.206;2023-08-21T01:18:59;6.03;;;5.40;;
11313;SDS011;5712;48.858;9.206;2023-08-21T01:21:27;6.13;;;5.53;;
11313;SDS011;5712;48.858;9.206;2023-08-21T01:23:56;6.90;;;5.50;;
11313;SDS011;5712;48.858;9.206;2023-08-21T01:26:22;6.63;;;5.87;;
11313;SDS011;5712;48.858;9.206;2023-08-21T01:28:48;5.77;;;5.20;;
11313;SDS011;5712;48.858;9.206;2023-08-21T01:31:15;6.93;;;5.40;;
11313;SDS011;5712;48.858;9.206;2023-08-21T01:33:47;8.03;;;5.93;;
11313;SDS011;5712;48.858;9.206;2023-08-21T01:36:17;6.87;;;5.70;;
11313;SDS011;5712;48.858;9.206;2023-08-21T01:38:44;6.38;;;5.70;;
11313;SDS011;5712;48.858;9.206;2023-08-21T01:41:12;6.13;;;5.53;;
11313;SDS011;5712;48.858;9.206;2023-08-21T01:43:39;6.23;;;5.63;;
11313;SDS011;5712;48.858;9.206;2023-08-21T01:46:05;7.10;;;5.63;;
11313;SDS011;5712;48.858;9.206;2023-08-21T01:48:32;6.33;;;5.50;;
11313;SDS011;5712;48.858;9.206;2023-08-21T01:51:00;6.07;;;5.40;;
11313;SDS011;5712;48.858;9.206;2023-08-21T01:53:27;7.83;;;6.00;;
11313;SDS011;5712;48.858;9.206;2023-08-21T01:55:53;6.50;;;5.90;;
11313;SDS011;5712;48.858;9.206;2023-08-21T01:58:21;5.70;;;5.17;;
11313;SDS011;5712;48.858;9.206;2023-08-21T02:00:47;6.07;;;5.47;;
11313;SDS011;5712;48.858;9.206;2023-08-21T02:03:14;6.73;;;6.03;;
11313;SDS011;5712;48.858;9.206;2023-08-21T02:05:41;6.97;;;6.27;;
11313;SDS011;5712;48.858;9.206;2023-08-21T02:08:09;6.67;;;5.97;;
11313;SDS011;5712;48.858;9.206;2023-08-21T02:10:38;6.60;;;6.00;;
11313;SDS011;5712;48.858;9.206;2023-08-21T02:13:13;7.63;;;6.30;;
11313;SDS011;5712;48.858;9.206;2023-08-21T02:15:41;7.30;;;6.00;;
11313;SDS011;5712;48.858;9.206;2023-08-21T02:18:07;8.50;;;7.07;;
11313;SDS011;5712;48.858;9.206;2023-08-21T02:20:34;8.77;;;6.83;;
11313;SDS011;5712;48.858;9.206;2023-08-21T02:23:00;8.20;;;7.40;;
11313;SDS011;5712;48.858;9.206;2023-08-21T02:25:27;8.07;;;7.20;;
11313;SDS011;5712;48.858;9.206;2023-08-21T02:27:55;8.07;;;6.63;;
11313;SDS011;5712;48.858;9.206;2023-08-21T02:30:22;7.80;;;6.83;;
11313;SDS011;5712;48.858;9.206;2023-08-21T02:32:51;8.07;;;6.97;;
11313;SDS011;5712;48.858;9.206;2023-08-21T02:35:18;7.83;;;7.03;;
11313;SDS011;5712;48.858;9.206;2023-08-21T02:37:44;7.57;;;6.77;;
11313;SDS011;5712;48.858;9.206;2023-08-21T02:40:11;7.50;;;6.70;;
11313;SDS011;5712;48.858;9.206;2023-08-21T02:42:37;9.53;;;7.43;;
11313;SDS011;5712;48.858;9.206;2023-08-21T02:45:04;8.90;;;7.40;;
11313;SDS011;5712;48.858;9.206;2023-08-21T02:47:34;8.47;;;7.50;;
11313;SDS011;5712;48.858;9.206;2023-08-21T02:50:03;8.70;;;7.37;;
11313;SDS011;5712;48.858;9.206;2023-08-21T02:52:30;8.10;;;6.97;;
11313;SDS011;5712;48.858;9.206;2023-08-21T02:54:56;10.93;;;7.30;;
11313;SDS011;5712;48.858;9.206;2023-08-21T02:57:23;8.33;;;7.50;;
11313;SDS011;5712;48.858;9.206;2023-08-21T02:59:50;8.30;;;7.30;;
11313;SDS011;5712;48.858;9.206;2023-08-21T03:02:17;7.63;;;6.90;;
11313;SDS011;5712;48.858;9.206;2023-08-21T03:04:43;8.13;;;7.00;;
11313;SDS011;5712;48.858;9.206;2023-08-21T03:07:11;8.47;;;7.33;;
11313;SDS011;5712;48.858;9.206;2023-08-21T03:09:38;7.77;;;6.83;;
11313;SDS011;5712;48.858;9.206;2023-08-21T03:12:06;7.63;;;6.83;;
11313;SDS011;5712;48.858;9.206;2023-08-21T03:14:33;8.13;;;7.30;;
11313;SDS011;5712;48.858;9.206;2023-08-21T03:17:00;8.40;;;6.90;;
11313;SDS011;5712;48.858;9.206;2023-08-21T03:19:26;8.23;;;6.93;;
11313;SDS011;5712;48.858;9.206;2023-08-21T03:21:53;8.50;;;6.37;;
11313;SDS011;5712;48.858;9.206;2023-08-21T03:24:21;6.57;;;5.83;;
11313;SDS011;5712;48.858;9.206;2023-08-21T03:26:47;7.33;;;5.93;;
11313;SDS011;5712;48.858;9.206;2023-08-21T03:29:14;7.50;;;6.30;;
11313;SDS011;5712;48.858;9.206;2023-08-21T03:31:40;6.60;;;5.90;;
11313;SDS011;5712;48.858;9.206;2023-08-21T03:34:07;7.20;;;6.03;;
11313;SDS011;5712;48.858;9.206;2023-08-21T03:36:33;8.20;;;6.43;;
11313;SDS011;5712;48.858;9.206;2023-08-21T03:39:02;6.83;;;5.97;;
11313;SDS011;5712;48.858;9.206;2023-08-21T03:41:32;7.63;;;6.23;;
11313;SDS011;5712;48.858;9.206;2023-08-21T03:43:58;7.07;;;6.37;;
11313;SDS011;5712;48.858;9.206;2023-08-21T03:46:25;8.10;;;6.83;;
11313;SDS011;5712;48.858;9.206;2023-08-21T03:48:51;8.53;;;6.40;;
11313;SDS011;5712;48.858;9.206;2023-08-21T03:51:18;6.67;;;5.97;;
11313;SDS011;5712;48.858;9.206;2023-08-21T03:53:44;7.67;;;6.87;;
11313;SDS011;5712;48.858;9.206;2023-08-21T03:56:11;7.43;;;6.70;;
11313;SDS011;5712;48.858;9.206;2023-08-21T03:58:38;7.77;;;6.90;;
11313;SDS011;5712;48.858;9.206;2023-08-21T04:01:05;7.87;;;7.07;;
11313;SDS011;5712;48.858;9.206;2023-08-21T04:03:31;8.60;;;7.33;;
11313;SDS011;5712;48.858;9.206;2023-08-21T04:05:58;9.10;;;7.73;;
11313;SDS011;5712;48.858;9.206;2023-08-21T04:08:25;8.90;;;7.43;;
11313;SDS011;5712;48.858;9.206;2023-08-21T04:10:51;9.70;;;7.80;;
11313;SDS011;5712;48.858;9.206;2023-08-21T04:13:18;9.20;;;7.63;;
11313;SDS011;5712;48.858;9.206;2023-08-21T04:15:47;8.80;;;7.83;;
11313;SDS011;5712;48.858;9.206;2023-08-21T04:18:15;9.17;;;7.20;;
11313;SDS011;5712;48.858;9.206;2023-08-21T04:20:41;9.23;;;7.80;;
11313;SDS011;5712;48.858;9.206;2023-08-21T04:23:08;8.87;;;7.80;;
11313;SDS011;5712;48.858;9.206;2023-08-21T04:25:35;8.80;;;7.57;;
11313;SDS011;5712;48.858;9.206;2023-08-21T04:28:01;8.30;;;7.50;;
11313;SDS011;5712;48.858;9.206;2023-08-21T04:30:28;9.23;;;7.87;;
11313;SDS011;5712;48.858;9.206;2023-08-21T04:32:56;9.63;;;7.50;;
11313;SDS011;5712;48.858;9.206;2023-08-21T04:35:24;9.03;;;7.27;;
11313;SDS011;5712;48.858;9.206;2023-08-21T04:37:50;7.87;;;7.07;;
11313;SDS011;5712;48.858;9.206;2023-08-21T04:40:17;8.87;;;7.50;;
11313;SDS011;5712;48.858;9.206;2023-08-21T04:42:45;8.73;;;7.20;;
11313;SDS011;5712;48.858;9.206;2023-08-21T04:45:12;9.43;;;7.53;;
11313;SDS011;5712;48.858;9.206;2023-08-21T04:47:39;7.77;;;6.87;;
11313;SDS011;5712;48.858;9.206;2023-08-21T04:50:07;8.00;;;7.20;;
11313;SDS011;5712;48.858;9.206;2023-08-21T04:52:34;9.87;;;6.87;;
11313;SDS011;5712;48.858;9.206;2023-08-21T04:55:00;8.07;;;7.27;;
11313;SDS011;5712;48.858;9.206;2023-08-21T04:57:26;8.70;;;6.90;;
11313;SDS011;5712;48.858;9.206;2023-08-21T04:59:53;9.63;;;7.03;;
11313;SDS011;5712;48.858;9.206;2023-08-21T05:02:19;7.47;;;6.67;;
11313;SDS011;5712;48.858;9.206;2023-08-21T05:04:46;9.43;;;7.17;;
11313;SDS011;5712;48.858;9.206;2023-08-21T05:07:14;7.73;;;6.97;;
11313;SDS011;5712;48.858;9.206;2023-08-21T05:09:41;9.20;;;7.00;;
11313;SDS011;5712;48.858;9.206;2023-08-21T05:12:07;8.47;;;7.23;;
11313;SDS011;5712;48.858;9.206;2023-08-21T05:14:34;7.93;;;7.13;;
11313;SDS011;5712;48.858;9.206;2023-08-21T05:17:00;10.23;;;7.90;;
11313;SDS011;5712;48.858;9.206;2023-08-21T05:19:27;8.27;;;7.40;;
11313;SDS011;5712;48.858;9.206;2023-08-21T05:21:53;8.00;;;7.20;;
11313;SDS011;5712;48.858;9.206;2023-08-21T05:24:21;9.07;;;7.43;;
11313;SDS011;5712;48.858;9.206;2023-08-21T05:26:47;7.77;;;6.90;;
11313;SDS011;5712;48.858;9.206;2023-08-21T05:29:14;8.33;;;7.10;;
11313;SDS011;5712;48.858;9.206;2023-08-21T05:31:40;9.10;;;6.90;;
11313;SDS011;5712;48.858;9.206;2023-08-21T05:34:07;7.40;;;6.57;;
11313;SDS011;5712;48.858;9.206;2023-08-21T05:36:34;8.87;;;6.77;;
11313;SDS011;5712;48.858;9.206;2023-08-21T05:39:01;7.90;;;6.27;;
11313;SDS011;5712;48.858;9.206;2023-08-21T05:41:32;8.33;;;6.67;;
11313;SDS011;5712;48.858;9.206;2023-08-21T05:43:58;8.33;;;7.00;;
11313;SDS011;5712;48.858;9.206;2023-08-21T05:46:25;8.37;;;6.80;;
11313;SDS011;5712;48.858;9.206;2023-08-21T05:48:51;7.37;;;6.43;;
11313;SDS011;5712;48.858;9.206;2023-08-21T05:51:18;7.33;;;6.40;;
11313;SDS011;5712;48.858;9.206;2023-08-21T05:53:44;8.23;;;6.93;;
11313;SDS011;5712;48.858;9.206;2023-08-21T05:56:11;10.57;;;7.00;;
11313;SDS011;5712;48.858;9.206;2023-08-21T05:58:39;7.73;;;6.90;;
11313;SDS011;5712;48.858;9.206;2023-08-21T06:01:05;6.67;;;6.07;;
11313;SDS011;5712;48.858;9.206;2023-08-21T06:03:32;7.03;;;6.32;;
11313;SDS011;5712;48.858;9.206;2023-08-21T06:05:58;7.13;;;6.03;;
11313;SDS011;5712;48.858;9.206;2023-08-21T06:08:25;7.77;;;6.37;;
11313;SDS011;5712;48.858;9.206;2023-08-21T06:10:51;6.43;;;5.83;;
11313;SDS011;5712;48.858;9.206;2023-08-21T06:13:18;6.93;;;6.23;;
11313;SDS011;5712;48.858;9.206;2023-08-21T06:15:46;6.77;;;5.73;;
11313;SDS011;5712;48.858;9.206;2023-08-21T06:18:12;7.13;;;6.33;;
11313;SDS011;5712;48.858;9.206;2023-08-21T06:20:39;8.88;;;7.13;;
11313;SDS011;5712;48.858;9.206;2023-08-21T06:23:07;10.88;;;6.30;;
11313;SDS011;5712;48.858;9.206;2023-08-21T06:25:34;8.47;;;6.30;;
11313;SDS011;5712;48.858;9.206;2023-08-21T06:28:00;6.47;;;5.87;;
11313;SDS011;5712;48.858;9.206;2023-08-21T06:30:27;8.40;;;6.60;;
11313;SDS011;5712;48.858;9.206;2023-08-21T06:32:54;7.00;;;6.10;;
11313;SDS011;5712;48.858;9.206;2023-08-21T06:35:21;7.65;;;6.07;;
11313;SDS011;5712;48.858;9.206;2023-08-21T06:37:48;7.23;;;6.43;;
11313;SDS011;5712;48.858;9.206;2023-08-21T06:40:14;6.97;;;5.80;;
11313;SDS011;5712;48.858;9.206;2023-08-21T06:42:41;7.03;;;6.23;;
11313;SDS011;5712;48.858;9.206;2023-08-21T06:45:08;7.75;;;5.82;;
11313;SDS011;5712;48.858;9.206;2023-08-21T06:47:35;6.73;;;6.00;;
11313;SDS011;5712;48.858;9.206;2023-08-21T06:50:03;7.63;;;6.13;;
11313;SDS011;5712;48.858;9.206;2023-08-21T06:52:29;7.37;;;5.93;;
11313;SDS011;5712;48.858;9.206;2023-08-21T06:54:56;7.00;;;6.20;;
11313;SDS011;5712;48.858;9.206;2023-08-21T06:57:22;6.63;;;5.80;;
11313;SDS011;5712;48.858;9.206;2023-08-21T06:59:49;6.37;;;5.67;;
11313;SDS011;5712;48.858;9.206;2023-08-21T07:02:15;7.03;;;6.33;;
11313;SDS011;5712;48.858;9.206;2023-08-21T07:04:42;6.87;;;5.97;;
11313;SDS011;5712;48.858;9.206;2023-08-21T07:07:10;6.73;;;5.80;;
11313;SDS011;5712;48.858;9.206;2023-08-21T07:09:36;7.80;;;5.77;;
11313;SDS011;5712;48.858;9.206;2023-08-21T07:12:03;6.78;;;6.07;;
11313;SDS011;5712;48.858;9.206;2023-08-21T07:14:30;6.57;;;5.87;;
11313;SDS011;5712;48.858;9.206;2023-08-21T07:16:56;6.85;;;6.18;;
11313;SDS011;5712;48.858;9.206;2023-08-21T07:19:23;10.23;;;6.40;;
11313;SDS011;5712;48.858;9.206;2023-08-21T07:21:49;8.73;;;7.00;;
11313;SDS011;5712;48.858;9.206;2023-08-21T07:24:17;7.20;;;6.43;;
11313;SDS011;5712;48.858;9.206;2023-08-21T07:26:44;7.60;;;6.63;;
11313;SDS011;5712;48.858;9.206;2023-08-21T07:29:11;10.23;;;6.95;;
11313;SDS011;5712;48.858;9.206;2023-08-21T07:31:37;6.63;;;5.97;;
11313;SDS011;5712;48.858;9.206;2023-08-21T07:34:04;7.57;;;6.25;;
11313;SDS011;5712;48.858;9.206;2023-08-21T07:36:31;7.63;;;6.05;;
11313;SDS011;5712;48.858;9.206;2023-08-21T07:38:57;6.88;;;6.05;;
11313;SDS011;5712;48.858;9.206;2023-08-21T07:41:25;7.33;;;6.50;;
11313;SDS011;5712;48.858;9.206;2023-08-21T07:43:52;6.38;;;5.78;;
11313;SDS011;5712;48.858;9.206;2023-08-21T07:46:18;7.03;;;6.32;;
11313;SDS011;5712;48.858;9.206;2023-08-21T07:48:45;7.40;;;6.40;;
11313;SDS011;5712;48.858;9.206;2023-08-21T07:51:11;7.90;;;6.10;;
11313;SDS011;5712;48.858;9.206;2023-08-21T07:53:39;7.80;;;6.30;;
11313;SDS011;5712;48.858;9.206;2023-08-21T07:56:05;7.22;;;5.95;;
11313;SDS011;5712;48.858;9.206;2023-08-21T07:58:33;9.50;;;5.93;;
11313;SDS011;5712;48.858;9.206;2023-08-21T08:01:00;8.07;;;6.28;;
11313;SDS011;5712;48.858;9.206;2023-08-21T08:03:29;7.03;;;6.18;;
11313;SDS011;5712;48.858;9.206;2023-08-21T08:05:56;7.40;;;6.25;;
11313;SDS011;5712;48.858;9.206;2023-08-21T08:08:23;8.20;;;6.05;;
11313;SDS011;5712;48.858;9.206;2023-08-21T08:10:50;7.10;;;6.18;;
11313;SDS011;5712;48.858;9.206;2023-08-21T08:13:16;6.65;;;5.95;;
11313;SDS011;5712;48.858;9.206;2023-08-21T08:15:45;8.85;;;6.30;;
11313;SDS011;5712;48.858;9.206;2023-08-21T08:18:11;7.22;;;6.50;;
11313;SDS011;5712;48.858;9.206;2023-08-21T08:20:38;8.35;;;6.78;;
11313;SDS011;5712;48.858;9.206;2023-08-21T08:23:05;8.02;;;6.25;;
11313;SDS011;5712;48.858;9.206;2023-08-21T08:25:31;9.38;;;6.88;;
11313;SDS011;5712;48.858;9.206;2023-08-21T08:27:58;7.10;;;6.03;;
11313;SDS011;5712;48.858;9.206;2023-08-21T08:30:24;7.07;;;6.38;;
11313;SDS011;5712;48.858;9.206;2023-08-21T08:32:52;9.25;;;6.65;;
11313;SDS011;5712;48.858;9.206;2023-08-21T08:35:19;7.38;;;6.13;;
11313;SDS011;5712;48.858;9.206;2023-08-21T08:37:45;6.47;;;5.72;;
11313;SDS011;5712;48.858;9.206;2023-08-21T08:40:12;6.93;;;5.95;;
11313;SDS011;5712;48.858;9.206;2023-08-21T08:42:39;6.13;;;5.53;;
11313;SDS011;5712;48.858;9.206;2023-08-21T08:45:06;6.55;;;5.70;;
11313;SDS011;5712;48.858;9.206;2023-08-21T08:47:33;6.95;;;5.70;;
11313;SDS011;5712;48.858;9.206;2023-08-21T08:50:02;7.53;;;6.10;;
11313;SDS011;5712;48.858;9.206;2023-08-21T08:52:31;7.03;;;6.18;;
11313;SDS011;5712;48.858;9.206;2023-08-21T08:55:02;7.60;;;6.07;;
11313;SDS011;5712;48.858;9.206;2023-08-21T08:57:29;6.72;;;6.03;;
11313;SDS011;5712;48.858;9.206;2023-08-21T08:59:56;8.38;;;6.60;;
11313;SDS011;5712;48.858;9.206;2023-08-21T09:02:23;6.72;;;5.78;;
11313;SDS011;5712;48.858;9.206;2023-08-21T09:04:51;6.45;;;5.80;;
11313;SDS011;5712;48.858;9.206;2023-08-21T09:07:20;6.82;;;6.03;;
11313;SDS011;5712;48.858;9.206;2023-08-21T09:09:47;6.43;;;5.82;;
11313;SDS011;5712;48.858;9.206;2023-08-21T09:12:16;6.45;;;5.85;;
11313;SDS011;5712;48.858;9.206;2023-08-21T09:14:43;7.07;;;6.38;;
11313;SDS011;5712;48.858;9.206;2023-08-21T09:17:11;6.60;;;6.00;;
11313;SDS011;5712;48.858;9.206;2023-08-21T09:19:38;8.00;;;6.55;;
11313;SDS011;5712;48.858;9.206;2023-08-21T09:22:08;6.32;;;5.70;;
11313;SDS011;5712;48.858;9.206;2023-08-21T09:24:37;6.65;;;5.93;;
11313;SDS011;5712;48.858;9.206;2023-08-21T09:27:04;6.32;;;5.47;;
11313;SDS011;5712;48.858;9.206;2023-08-21T09:29:38;7.38;;;6.10;;
11313;SDS011;5712;48.858;9.206;2023-08-21T09:32:05;7.78;;;5.93;;
11313;SDS011;5712;48.858;9.206;2023-08-21T09:34:35;6.78;;;5.85;;
11313;SDS011;5712;48.858;9.206;2023-08-21T09:37:04;6.50;;;5.78;;
11313;SDS011;5712;48.858;9.206;2023-08-21T09:39:32;8.02;;;6.10;;
11313;SDS011;5712;48.858;9.206;2023-08-21T09:42:01;6.35;;;5.70;;
11313;SDS011;5712;48.858;9.206;2023-08-21T09:44:34;6.00;;;5.47;;
11313;SDS011;5712;48.858;9.206;2023-08-21T09:47:01;6.35;;;5.75;;
11313;SDS011;5712;48.858;9.206;2023-08-21T09:49:28;5.78;;;5.28;;
11313;SDS011;5712;48.858;9.206;2023-08-21T09:51:55;6.50;;;5.90;;
11313;SDS011;5712;48.858;9.206;2023-08-21T09:54:23;6.20;;;5.60;;
11313;SDS011;5712;48.858;9.206;2023-08-21T09:56:50;5.10;;;4.60;;
11313;SDS011;5712;48.858;9.206;2023-08-21T09:59:18;5.60;;;4.60;;
11313;SDS011;5712;48.858;9.206;2023-08-21T10:01:45;5.25;;;4.75;;
11313;SDS011;5712;48.858;9.206;2023-08-21T10:04:15;7.05;;;4.95;;
11313;SDS011;5712;48.858;9.206;2023-08-21T10:06:43;6.15;;;5.00;;
11313;SDS011;5712;48.858;9.206;2023-08-21T10:09:12;9.07;;;5.28;;
11313;SDS011;5712;48.858;9.206;2023-08-21T10:11:40;6.07;;;5.38;;
11313;SDS011;5712;48.858;9.206;2023-08-21T10:14:08;7.28;;;5.50;;
11313;SDS011;5712;48.858;9.206;2023-08-21T10:16:36;5.80;;;5.20;;
11313;SDS011;5712;48.858;9.206;2023-08-21T10:19:03;4.90;;;4.50;;
11313;SDS011;5712;48.858;9.206;2023-08-21T10:21:34;4.93;;;3.67;;
11313;SDS011;5712;48.858;9.206;2023-08-21T10:24:02;6.05;;;4.50;;
11313;SDS011;5712;48.858;9.206;2023-08-21T10:26:29;6.07;;;4.88;;
11313;SDS011;5712;48.858;9.206;2023-08-21T10:28:57;5.22;;;4.55;;
11313;SDS011;5712;48.858;9.206;2023-08-21T10:31:28;6.05;;;4.32;;
11313;SDS011;5712;48.858;9.206;2023-08-21T10:33:57;5.18;;;4.22;;
11313;SDS011;5712;48.858;9.206;2023-08-21T10:39:30;6.65;;;4.22;;
11313;SDS011;5712;48.858;9.206;2023-08-21T10:42:00;4.82;;;4.28;;
11313;SDS011;5712;48.858;9.206;2023-08-21T10:44:45;5.65;;;4.70;;
11313;SDS011;5712;48.858;9.206;2023-08-21T10:47:16;4.63;;;4.22;;
11313;SDS011;5712;48.858;9.206;2023-08-21T10:49:46;5.15;;;4.45;;
11313;SDS011;5712;48.858;9.206;2023-08-21T10:52:17;5.85;;;4.72;;
11313;SDS011;5712;48.858;9.206;2023-08-21T10:54:47;5.10;;;4.47;;
11313;SDS011;5712;48.858;9.206;2023-08-21T10:57:15;5.18;;;4.68;;
11313;SDS011;5712;48.858;9.206;2023-08-21T10:59:54;6.47;;;4.32;;
11313;SDS011;5712;48.858;9.206;2023-08-21T11:02:22;5.70;;;4.20;;
11313;SDS011;5712;48.858;9.206;2023-08-21T11:04:51;5.35;;;4.78;;
11313;SDS011;5712;48.858;9.206;2023-08-21T11:07:18;5.47;;;4.82;;
11313;SDS011;5712;48.858;9.206;2023-08-21T11:09:46;6.10;;;5.00;;
11313;SDS011;5712;48.858;9.206;2023-08-21T11:12:14;5.57;;;4.68;;
11313;SDS011;5712;48.858;9.206;2023-08-21T11:14:42;4.75;;;4.35;;
11313;SDS011;5712;48.858;9.206;2023-08-21T11:17:09;6.65;;;4.70;;
11313;SDS011;5712;48.858;9.206;2023-08-21T11:19:36;5.28;;;4.60;;
11313;SDS011;5712;48.858;9.206;2023-08-21T11:22:05;7.00;;;4.80;;
11313;SDS011;5712;48.858;9.206;2023-08-21T11:24:43;5.60;;;5.00;;
11313;SDS011;5712;48.858;9.206;2023-08-21T11:27:11;5.22;;;4.75;;
11313;SDS011;5712;48.858;9.206;2023-08-21T11:29:39;5.63;;;4.60;;
11313;SDS011;5712;48.858;9.206;2023-08-21T11:32:08;5.30;;;4.60;;
11313;SDS011;5712;48.858;9.206;2023-08-21T11:34:36;5.95;;;4.93;;
11313;SDS011;5712;48.858;9.206;2023-08-21T11:37:04;5.75;;;4.78;;
11313;SDS011;5712;48.858;9.206;2023-08-21T11:39:41;7.93;;;4.88;;
11313;SDS011;5712;48.858;9.206;2023-08-21T11:42:09;6.03;;;4.80;;
11313;SDS011;5712;48.858;9.206;2023-08-21T11:44:39;5.70;;;4.72;;
11313;SDS011;5712;48.858;9.206;2023-08-21T11:47:06;5.90;;;5.00;;
11313;SDS011;5712;48.858;9.206;2023-08-21T11:49:35;5.03;;;4.53;;
11313;SDS011;5712;48.858;9.206;2023-08-21T11:52:03;6.00;;;5.05;;
11313;SDS011;5712;48.858;9.206;2023-08-21T11:54:32;5.40;;;4.90;;
11313;SDS011;5712;48.858;9.206;2023-08-21T11:57:00;5.65;;;4.90;;
11313;SDS011;5712;48.858;9.206;2023-08-21T11:59:30;5.82;;;4.43;;
11313;SDS011;5712;48.858;9.206;2023-08-21T12:01:56;5.95;;;5.07;;
11313;SDS011;5712;48.858;9.206;2023-08-21T12:04:23;5.80;;;5.03;;
11313;SDS011;5712;48.858;9.206;2023-08-21T12:06:50;6.00;;;5.10;;
11313;SDS011;5712;48.858;9.206;2023-08-21T12:09:18;6.32;;;5.55;;
11313;SDS011;5712;48.858;9.206;2023-08-21T12:11:45;5.60;;;5.03;;
11313;SDS011;5712;48.858;9.206;2023-08-21T12:14:11;6.85;;;5.13;;
11313;SDS011;5712;48.858;9.206;2023-08-21T12:16:38;5.93;;;5.35;;
11313;SDS011;5712;48.858;9.206;2023-08-21T12:19:04;6.35;;;5.18;;
11313;SDS011;5712;48.858;9.206;2023-08-21T12:21:34;5.70;;;5.10;;
11313;SDS011;5712;48.858;9.206;2023-08-21T12:24:03;6.43;;;4.88;;
11313;SDS011;5712;48.858;9.206;2023-08-21T12:26:31;7.07;;;4.68;;
11313;SDS011;5712;48.858;9.206;2023-08-21T12:28:58;5.15;;;4.65;;
11313;SDS011;5712;48.858;9.206;2023-08-21T12:31:24;6.95;;;5.20;;
11313;SDS011;5712;48.858;9.206;2023-08-21T12:33:51;8.30;;;5.40;;
11313;SDS011;5712;48.858;9.206;2023-08-21T12:36:17;5.63;;;4.90;;
11313;SDS011;5712;48.858;9.206;2023-08-21T12:38:44;5.80;;;5.15;;
11313;SDS011;5712;48.858;9.206;2023-08-21T12:41:11;5.05;;;4.65;;
11313;SDS011;5712;48.858;9.206;2023-08-21T12:43:38;6.70;;;5.40;;
11313;SDS011;5712;48.858;9.206;2023-08-21T12:46:05;6.80;;;5.55;;
11313;SDS011;5712;48.858;9.206;2023-08-21T12:48:31;6.22;;;5.57;;
11313;SDS011;5712;48.858;9.206;2023-08-21T12:50:58;6.88;;;5.55;;
11313;SDS011;5712;48.858;9.206;2023-08-21T12:53:25;7.45;;;5.70;;
11313;SDS011;5712;48.858;9.206;2023-08-21T12:55:51;6.35;;;5.60;;
11313;SDS011;5712;48.858;9.206;2023-08-21T12:58:18;6.75;;;5.53;;
11313;SDS011;5712;48.858;9.206;2023-08-21T13:00:46;8.05;;;5.05;;
11313;SDS011;5712;48.858;9.206;2023-08-21T13:03:12;5.53;;;4.97;;
11313;SDS011;5712;48.858;9.206;2023-08-21T13:05:39;5.50;;;4.80;;
11313;SDS011;5712;48.858;9.206;2023-08-21T13:08:05;5.78;;;4.78;;
11313;SDS011;5712;48.858;9.206;2023-08-21T13:10:32;5.57;;;5.07;;
11313;SDS011;5712;48.858;9.206;2023-08-21T13:12:59;5.80;;;5.15;;
11313;SDS011;5712;48.858;9.206;2023-08-21T13:15:25;6.70;;;5.05;;
11313;SDS011;5712;48.858;9.206;2023-08-21T13:17:53;5.57;;;4.60;;
11313;SDS011;5712;48.858;9.206;2023-08-21T13:20:19;5.22;;;4.72;;
11313;SDS011;5712;48.858;9.206;2023-08-21T13:22:46;5.05;;;4.55;;
11313;SDS011;5712;48.858;9.206;2023-08-21T13:25:14;5.85;;;5.25;;
11313;SDS011;5712;48.858;9.206;2023-08-21T13:27:41;6.82;;;5.18;;
11313;SDS011;5712;48.858;9.206;2023-08-21T13:30:08;5.47;;;4.78;;
11313;SDS011;5712;48.858;9.206;2023-08-21T13:32:35;5.93;;;5.05;;
11313;SDS011;5712;48.858;9.206;2023-08-21T13:35:04;4.97;;;4.47;;
11313;SDS011;5712;48.858;9.206;2023-08-21T13:37:31;5.75;;;5.13;;
11313;SDS011;5712;48.858;9.206;2023-08-21T13:39:58;5.40;;;4.60;;
11313;SDS011;5712;48.858;9.206;2023-08-21T13:42:25;5.00;;;4.60;;
11313;SDS011;5712;48.858;9.206;2023-08-21T13:44:55;5.50;;;5.00;;
11313;SDS011;5712;48.858;9.206;2023-08-21T13:47:22;5.25;;;4.75;;
11313;SDS011;5712;48.858;9.206;2023-08-21T13:49:48;5.50;;;5.00;;
11313;SDS011;5712;48.858;9.206;2023-08-21T13:52:16;5.60;;;5.10;;
11313;SDS011;5712;48.858;9.206;2023-08-21T13:54:43;6.50;;;4.90;;
11313;SDS011;5712;48.858;9.206;2023-08-21T13:57:09;4.97;;;4.47;;
11313;SDS011;5712;48.858;9.206;2023-08-21T13:59:36;5.50;;;4.95;;
11313;SDS011;5712;48.858;9.206;2023-08-21T14:02:02;5.72;;;4.70;;
11313;SDS011;5712;48.858;9.206;2023-08-21T14:04:29;5.45;;;4.38;;
11313;SDS011;5712;48.858;9.206;2023-08-21T14:06:56;6.95;;;4.97;;
11313;SDS011;5712;48.858;9.206;2023-08-21T14:09:24;7.03;;;4.53;;
11313;SDS011;5712;48.858;9.206;2023-08-21T14:11:50;5.15;;;4.47;;
11313;SDS011;5712;48.858;9.206;2023-08-21T14:14:17;5.47;;;4.50;;
11313;SDS011;5712;48.858;9.206;2023-08-21T14:16:44;5.55;;;4.50;;
11313;SDS011;5712;48.858;9.206;2023-08-21T14:19:10;5.82;;;4.30;;
11313;SDS011;5712;48.858;9.206;2023-08-21T14:21:37;10.70;;;4.93;;
11313;SDS011;5712;48.858;9.206;2023-08-21T14:24:03;5.10;;;4.60;;
11313;SDS011;5712;48.858;9.206;2023-08-21T14:26:31;5.25;;;4.75;;
11313;SDS011;5712;48.858;9.206;2023-08-21T14:28:58;7.60;;;4.82;;
11313;SDS011;5712;48.858;9.206;2023-08-21T14:31:24;5.63;;;4.93;;
11313;SDS011;5712;48.858;9.206;2023-08-21T14:33:52;5.28;;;4.47;;
11313;SDS011;5712;48.858;9.206;2023-08-21T14:36:18;6.97;;;4.45;;
11313;SDS011;5712;48.858;9.206;2023-08-21T14:38:46;4.78;;;4.32;;
11313;SDS011;5712;48.858;9.206;2023-08-21T14:41:12;5.55;;;4.55;;
11313;SDS011;5712;48.858;9.206;2023-08-21T14:43:40;6.15;;;4.55;;
11313;SDS011;5712;48.858;9.206;2023-08-21T14:46:07;5.65;;;4.45;;
11313;SDS011;5712;48.858;9.206;2023-08-21T14:48:33;4.70;;;4.30;;
11313;SDS011;5712;48.858;9.206;2023-08-21T14:51:00;5.10;;;4.40;;
11313;SDS011;5712;48.858;9.206;2023-08-21T14:53:26;5.30;;;4.80;;
11313;SDS011;5712;48.858;9.206;2023-08-21T14:55:53;5.38;;;4.38;;
11313;SDS011;5712;48.858;9.206;2023-08-21T14:58:19;4.38;;;3.97;;
11313;SDS011;5712;48.858;9.206;2023-08-21T15:00:47;5.78;;;4.60;;
11313;SDS011;5712;48.858;9.206;2023-08-21T15:03:14;5.05;;;4.30;;